createdAt,value
2023-07-23T00:02:08.756Z,2.72
2023-07-23T00:07:12.317Z,2.85
2023-07-23T00:12:15.770Z,2.25
2023-07-23T00:17:20.617Z,2.28
2023-07-23T00:22:24.134Z,2.05
2023-07-23T00:27:27.636Z,4.22
2023-07-23T00:32:32.539Z,2.92
2023-07-23T00:37:36.130Z,3.28
2023-07-23T00:42:39.980Z,4.93
2023-07-23T00:47:45.729Z,3.40
2023-07-23T00:52:49.643Z,3.63
2023-07-23T00:57:53.135Z,5.38
2023-07-23T01:02:59.081Z,3.03
2023-07-23T01:08:04.494Z,2.78
2023-07-23T01:13:08.136Z,2.75
2023-07-23T01:18:13.406Z,2.58
2023-07-23T01:23:18.220Z,3.55
2023-07-23T01:28:21.666Z,4.35
2023-07-23T01:33:25.566Z,5.40
2023-07-23T01:38:30.637Z,3.47
2023-07-23T01:43:34.380Z,3.42
2023-07-23T01:48:37.866Z,2.30
2023-07-23T01:53:42.854Z,2.25
2023-07-23T01:58:46.370Z,2.50
2023-07-23T02:03:49.915Z,2.63
2023-07-23T02:08:55.034Z,2.42
2023-07-23T02:13:58.682Z,2.50
2023-07-23T02:19:02.533Z,2.50
2023-07-23T02:24:07.755Z,3.08
2023-07-23T02:29:15.881Z,1.80
2023-07-23T02:34:19.511Z,2.45
2023-07-23T02:39:24.371Z,2.50
2023-07-23T02:44:29.467Z,3.13
2023-07-23T02:49:32.923Z,2.45
2023-07-23T02:54:37.722Z,2.78
2023-07-23T02:59:41.167Z,2.08
2023-07-23T03:04:44.656Z,2.75
2023-07-23T03:09:49.735Z,3.05
2023-07-23T03:14:54.332Z,3.72
2023-07-23T03:19:57.715Z,2.90
2023-07-23T03:25:02.438Z,2.55
2023-07-23T03:30:06.978Z,3.30
2023-07-23T03:35:10.773Z,2.50
2023-07-23T03:40:15.704Z,2.60
2023-07-23T03:45:19.521Z,1.90
2023-07-23T03:50:23.624Z,2.53
2023-07-23T03:55:28.587Z,3.05
2023-07-23T04:00:32.638Z,6.15
2023-07-23T04:05:41.282Z,1.90
2023-07-23T04:10:46.117Z,3.42
2023-07-23T04:15:49.627Z,2.13
2023-07-23T04:20:53.115Z,2.97
2023-07-23T04:25:58.118Z,1.90
2023-07-23T04:31:01.582Z,2.35
2023-07-23T04:36:05.582Z,2.15
2023-07-23T04:41:35.145Z,2.20
2023-07-23T04:46:39.006Z,2.33
2023-07-23T04:51:42.436Z,1.90
2023-07-23T04:56:47.282Z,2.55
2023-07-23T05:01:50.695Z,2.55
2023-07-23T05:06:54.150Z,2.08
2023-07-23T05:11:58.887Z,2.08
2023-07-23T05:17:02.542Z,2.85
2023-07-23T05:22:07.158Z,2.83
2023-07-23T05:27:11.943Z,2.25
2023-07-23T05:32:15.504Z,2.60
2023-07-23T05:37:19.032Z,2.00
2023-07-23T05:42:24.120Z,3.55
2023-07-23T05:47:27.656Z,2.13
2023-07-23T05:52:31.286Z,2.35
2023-07-23T05:57:36.354Z,2.85
2023-07-23T06:02:39.924Z,3.67
2023-07-23T06:07:43.444Z,2.22
2023-07-23T06:12:48.246Z,2.20
2023-07-23T06:17:51.796Z,2.35
2023-07-23T06:22:56.088Z,2.72
2023-07-23T06:28:01.054Z,4.00
2023-07-23T06:33:04.839Z,2.55
2023-07-23T06:38:08.377Z,2.85
2023-07-23T06:43:13.214Z,2.45
2023-07-23T06:48:17.526Z,2.17
2023-07-23T06:53:21.430Z,2.38
2023-07-23T06:58:26.450Z,2.90
2023-07-23T07:03:30.332Z,1.80
2023-07-23T07:08:33.841Z,1.75
2023-07-23T07:13:39.852Z,2.05
2023-07-23T07:18:43.322Z,4.15
2023-07-23T07:23:46.836Z,2.00
2023-07-23T07:28:52.905Z,2.55
2023-07-23T07:33:56.381Z,2.10
2023-07-23T07:38:59.918Z,2.75
2023-07-23T07:44:04.879Z,2.97
2023-07-23T07:49:08.336Z,3.63
2023-07-23T07:54:11.977Z,3.25
2023-07-23T07:59:17.442Z,1.75
2023-07-23T08:04:21.537Z,2.25
2023-07-23T08:09:26.425Z,1.92
2023-07-23T08:14:32.373Z,1.48
2023-07-23T08:19:36.246Z,3.67
2023-07-23T08:24:40.366Z,1.70
2023-07-23T08:29:50.645Z,2.83
2023-07-23T08:34:56.122Z,2.05
2023-07-23T08:40:00.148Z,1.70
2023-07-23T08:45:43.324Z,1.33
2023-07-23T08:50:47.963Z,4.15
2023-07-23T08:55:51.761Z,1.50
2023-07-23T09:00:56.678Z,1.60
2023-07-23T09:06:01.259Z,2.00
2023-07-23T09:11:06.311Z,1.33
2023-07-23T09:16:11.162Z,1.67
2023-07-23T09:21:24.366Z,1.23
2023-07-23T09:26:30.260Z,1.98
2023-07-23T09:31:35.253Z,1.50
2023-07-23T09:36:38.931Z,5.18
2023-07-23T09:41:42.387Z,1.25
2023-07-23T09:46:49.121Z,1.38
2023-07-23T09:51:53.994Z,1.52
2023-07-23T09:56:58.408Z,1.45
2023-07-23T10:02:04.166Z,1.85
2023-07-23T10:07:09.525Z,4.05
2023-07-23T10:12:13.042Z,1.75
2023-07-23T10:17:19.860Z,2.55
2023-07-23T10:22:24.566Z,3.28
2023-07-23T10:27:28.128Z,2.15
2023-07-23T10:32:33.217Z,2.17
2023-07-23T10:37:36.701Z,2.17
2023-07-23T10:42:45.442Z,2.90
2023-07-23T10:47:54.152Z,2.45
2023-07-23T10:53:03.471Z,3.03
2023-07-23T10:58:12.919Z,1.98
2023-07-23T11:03:20.184Z,2.55
2023-07-23T11:08:27.660Z,2.20
2023-07-23T11:13:35.279Z,2.83
2023-07-23T11:18:41.450Z,1.85
2023-07-23T11:23:45.160Z,8.15
2023-07-23T11:28:49.164Z,3.05
2023-07-23T11:33:54.064Z,3.17
2023-07-23T11:38:58.635Z,6.00
2023-07-23T11:44:04.979Z,1.80
2023-07-23T11:49:11.124Z,3.08
2023-07-23T11:54:15.883Z,3.00
2023-07-23T11:59:19.632Z,2.60
2023-07-23T12:04:24.634Z,3.35
2023-07-23T12:09:28.335Z,2.13
2023-07-23T12:14:31.906Z,1.60
2023-07-23T12:19:36.690Z,3.15
2023-07-23T12:24:40.425Z,3.42
2023-07-23T12:29:45.104Z,4.43
2023-07-23T12:34:50.856Z,2.40
2023-07-23T12:39:57.181Z,4.45
2023-07-23T12:45:00.880Z,2.13
2023-07-23T12:50:07.178Z,2.67
2023-07-23T12:55:10.919Z,2.47
2023-07-23T13:00:15.011Z,2.80
2023-07-23T13:05:21.249Z,2.30
2023-07-23T13:10:24.763Z,2.10
2023-07-23T13:15:28.203Z,1.90
2023-07-23T13:20:33.396Z,3.13
2023-07-23T13:25:36.881Z,2.17
2023-07-23T13:30:40.388Z,2.40
2023-07-23T13:35:45.457Z,2.20
2023-07-23T13:40:49.102Z,2.33
2023-07-23T13:45:52.510Z,2.65
2023-07-23T13:50:57.441Z,3.90
2023-07-23T13:56:01.284Z,3.05
2023-07-23T14:01:04.760Z,2.95
2023-07-23T14:06:09.885Z,3.50
2023-07-23T14:11:13.415Z,2.75
2023-07-23T14:16:16.986Z,2.65
2023-07-23T14:21:21.776Z,4.95
2023-07-23T14:26:25.495Z,2.90
2023-07-23T14:31:29.514Z,3.72
2023-07-23T14:36:34.637Z,2.40
2023-07-23T14:41:38.169Z,2.88
2023-07-23T14:46:41.733Z,3.83
2023-07-23T14:51:46.698Z,3.60
2023-07-23T14:56:54.156Z,3.15
2023-07-23T15:01:57.746Z,2.90
2023-07-23T15:07:03.726Z,3.20
2023-07-23T15:12:08.210Z,3.50
2023-07-23T15:17:12.647Z,3.10
2023-07-23T15:22:18.211Z,4.00
2023-07-23T15:27:23.077Z,4.47
2023-07-23T15:32:27.403Z,2.75
2023-07-23T15:37:32.295Z,4.97
2023-07-23T15:42:35.906Z,3.75
2023-07-23T15:47:39.322Z,4.00
2023-07-23T15:52:44.413Z,4.07
2023-07-23T15:57:48.007Z,4.40
2023-07-23T16:02:51.575Z,4.70
2023-07-23T16:07:56.377Z,5.75
2023-07-23T16:13:21.124Z,3.88
2023-07-23T16:18:24.539Z,4.25
2023-07-23T16:23:29.332Z,3.85
2023-07-23T16:28:32.746Z,4.18
2023-07-23T16:33:36.633Z,6.07
2023-07-23T16:38:43.250Z,4.88
2023-07-23T16:43:48.152Z,7.40
2023-07-23T16:48:51.828Z,3.72
2023-07-23T16:53:56.599Z,4.45
2023-07-23T16:59:00.049Z,6.00
2023-07-23T17:04:03.498Z,3.53
2023-07-23T17:09:08.330Z,6.43
2023-07-23T17:14:12.251Z,4.25
2023-07-23T17:19:17.369Z,3.63
2023-07-23T17:24:22.356Z,5.15
2023-07-23T17:29:25.835Z,4.07
2023-07-23T17:34:29.396Z,4.63
2023-07-23T17:39:34.184Z,4.05
2023-07-23T17:44:37.694Z,5.07
2023-07-23T17:49:41.234Z,5.07
2023-07-23T17:54:46.122Z,4.68
2023-07-23T17:59:49.827Z,4.47
2023-07-23T18:04:53.325Z,4.50
2023-07-23T18:09:58.284Z,4.45
2023-07-23T18:15:02.271Z,4.88
2023-07-23T18:20:06.582Z,4.72
2023-07-23T18:25:11.647Z,4.22
2023-07-23T18:30:15.093Z,3.80
2023-07-23T18:35:19.780Z,5.82
2023-07-23T18:40:24.718Z,4.22
2023-07-23T18:45:28.382Z,3.97
2023-07-23T18:50:34.471Z,5.00
2023-07-23T18:55:39.319Z,4.57
2023-07-23T19:00:45.310Z,11.00
2023-07-23T19:05:48.780Z,5.72
2023-07-23T19:10:53.658Z,6.40
2023-07-23T19:15:57.412Z,5.47
2023-07-23T19:21:00.955Z,5.72
2023-07-23T19:26:05.728Z,5.18
2023-07-23T19:31:11.087Z,5.15
2023-07-23T19:36:14.584Z,5.97
2023-07-23T19:41:19.417Z,6.47
2023-07-23T19:46:23.783Z,7.55
2023-07-23T19:51:27.450Z,6.07
2023-07-23T19:56:32.509Z,6.65
2023-07-23T20:01:36.086Z,6.50
2023-07-23T20:06:39.553Z,8.00
2023-07-23T20:11:44.437Z,5.47
2023-07-23T20:16:47.961Z,4.38
2023-07-23T20:21:51.443Z,5.53
2023-07-23T20:26:59.517Z,4.85
2023-07-23T20:32:10.009Z,5.18
2023-07-23T20:37:15.552Z,6.00
2023-07-23T20:42:20.916Z,5.53
2023-07-23T20:47:24.468Z,5.00
2023-07-23T20:52:27.923Z,5.18
2023-07-23T20:57:32.649Z,7.22
2023-07-23T21:02:36.207Z,7.10
2023-07-23T21:07:40.251Z,6.45
2023-07-23T21:12:45.252Z,6.47
2023-07-23T21:17:48.881Z,5.90
2023-07-23T21:22:52.589Z,6.70
2023-07-23T21:27:57.455Z,5.95
2023-07-23T21:33:01.039Z,7.50
2023-07-23T21:38:04.465Z,6.68
2023-07-23T21:43:09.455Z,6.03
2023-07-23T21:48:12.825Z,7.47
2023-07-23T21:53:16.686Z,6.97
2023-07-23T21:58:21.631Z,6.68
2023-07-23T22:03:25.338Z,6.95
2023-07-23T22:08:28.797Z,7.00
2023-07-23T22:13:33.571Z,8.18
2023-07-23T22:18:36.910Z,6.45
2023-07-23T22:23:40.360Z,8.25
2023-07-23T22:28:45.087Z,8.10
2023-07-23T22:33:48.526Z,10.32
2023-07-23T22:38:52.054Z,7.13
2023-07-23T22:43:57.335Z,7.90
2023-07-23T22:49:00.965Z,7.57
2023-07-23T22:54:04.499Z,6.95
2023-07-23T22:59:09.656Z,7.00
2023-07-23T23:04:16.316Z,7.13
2023-07-23T23:09:19.671Z,8.45
2023-07-23T23:14:24.711Z,7.25
2023-07-23T23:19:28.124Z,7.93
2023-07-23T23:24:31.571Z,6.93
2023-07-23T23:29:36.880Z,8.00
2023-07-23T23:34:40.249Z,8.18
2023-07-23T23:39:43.652Z,7.35
2023-07-23T23:44:48.636Z,8.27
2023-07-23T23:49:52.373Z,6.63
2023-07-23T23:54:55.729Z,9.93
